sensor_id;sensor_type;location;lat;lon;timestamp;P1;durP1;ratioP1;P2;durP2;ratioP2
11984;SDS011;6052;53.246;10.368;2023-01-30T00:01:39;1.60;;;1.10;;
11984;SDS011;6052;53.246;10.368;2023-01-30T00:04:07;1.50;;;1.40;;
11984;SDS011;6052;53.246;10.368;2023-01-30T00:06:37;1.27;;;1.17;;
11984;SDS011;6052;53.246;10.368;2023-01-30T00:09:05;1.43;;;1.33;;
11984;SDS011;6052;53.246;10.368;2023-01-30T00:11:32;2.73;;;2.23;;
11984;SDS011;6052;53.246;10.368;2023-01-30T00:14:01;3.67;;;3.07;;
11984;SDS011;6052;53.246;10.368;2023-01-30T00:16:29;2.53;;;1.10;;
11984;SDS011;6052;53.246;10.368;2023-01-30T00:18:56;4.20;;;1.93;;
11984;SDS011;6052;53.246;10.368;2023-01-30T00:21:24;3.80;;;1.53;;
11984;SDS011;6052;53.246;10.368;2023-01-30T00:23:51;1.80;;;1.70;;
11984;SDS011;6052;53.246;10.368;2023-01-30T00:26:19;3.17;;;1.23;;
11984;SDS011;6052;53.246;10.368;2023-01-30T00:28:46;2.20;;;1.97;;
11984;SDS011;6052;53.246;10.368;2023-01-30T00:31:15;2.67;;;1.27;;
11984;SDS011;6052;53.246;10.368;2023-01-30T00:33:43;7.17;;;2.97;;
11984;SDS011;6052;53.246;10.368;2023-01-30T00:36:10;6.30;;;2.33;;
11984;SDS011;6052;53.246;10.368;2023-01-30T00:38:38;1.50;;;1.40;;
11984;SDS011;6052;53.246;10.368;2023-01-30T00:41:05;2.83;;;2.57;;
11984;SDS011;6052;53.246;10.368;2023-01-30T00:43:33;2.27;;;1.43;;
11984;SDS011;6052;53.246;10.368;2023-01-30T00:46:23;1.03;;;0.97;;
11984;SDS011;6052;53.246;10.368;2023-01-30T00:49:11;1.90;;;1.37;;
11984;SDS011;6052;53.246;10.368;2023-01-30T00:51:38;5.10;;;1.40;;
11984;SDS011;6052;53.246;10.368;2023-01-30T00:54:06;3.90;;;2.60;;
11984;SDS011;6052;53.246;10.368;2023-01-30T00:56:34;3.50;;;1.47;;
11984;SDS011;6052;53.246;10.368;2023-01-30T00:59:01;8.77;;;3.07;;
11984;SDS011;6052;53.246;10.368;2023-01-30T01:01:32;1.43;;;1.30;;
11984;SDS011;6052;53.246;10.368;2023-01-30T01:04:00;2.77;;;2.43;;
11984;SDS011;6052;53.246;10.368;2023-01-30T01:06:28;3.83;;;2.40;;
11984;SDS011;6052;53.246;10.368;2023-01-30T01:08:56;2.63;;;1.53;;
11984;SDS011;6052;53.246;10.368;2023-01-30T01:11:23;2.17;;;1.83;;
11984;SDS011;6052;53.246;10.368;2023-01-30T01:13:51;1.33;;;1.00;;
11984;SDS011;6052;53.246;10.368;2023-01-30T01:16:20;3.17;;;1.97;;
11984;SDS011;6052;53.246;10.368;2023-01-30T01:18:49;1.57;;;1.10;;
11984;SDS011;6052;53.246;10.368;2023-01-30T01:21:17;5.33;;;2.43;;
11984;SDS011;6052;53.246;10.368;2023-01-30T01:23:48;1.37;;;1.20;;
11984;SDS011;6052;53.246;10.368;2023-01-30T01:26:15;3.37;;;1.77;;
11984;SDS011;6052;53.246;10.368;2023-01-30T01:28:43;1.70;;;1.17;;
11984;SDS011;6052;53.246;10.368;2023-01-30T01:31:11;2.53;;;2.33;;
11984;SDS011;6052;53.246;10.368;2023-01-30T01:33:40;1.17;;;1.13;;
11984;SDS011;6052;53.246;10.368;2023-01-30T01:36:09;4.67;;;2.03;;
11984;SDS011;6052;53.246;10.368;2023-01-30T01:38:45;1.73;;;1.63;;
11984;SDS011;6052;53.246;10.368;2023-01-30T01:41:12;1.07;;;1.07;;
11984;SDS011;6052;53.246;10.368;2023-01-30T01:46:27;1.10;;;1.10;;
11984;SDS011;6052;53.246;10.368;2023-01-30T01:48:56;1.47;;;1.37;;
11984;SDS011;6052;53.246;10.368;2023-01-30T01:51:27;3.07;;;1.40;;
11984;SDS011;6052;53.246;10.368;2023-01-30T01:53:57;1.20;;;1.10;;
11984;SDS011;6052;53.246;10.368;2023-01-30T01:56:28;1.43;;;1.33;;
11984;SDS011;6052;53.246;10.368;2023-01-30T01:59:00;1.63;;;1.53;;
11984;SDS011;6052;53.246;10.368;2023-01-30T02:01:28;2.53;;;1.60;;
11984;SDS011;6052;53.246;10.368;2023-01-30T02:03:57;1.43;;;1.30;;
11984;SDS011;6052;53.246;10.368;2023-01-30T02:06:29;1.53;;;1.43;;
11984;SDS011;6052;53.246;10.368;2023-01-30T02:08:58;0.63;;;0.63;;
11984;SDS011;6052;53.246;10.368;2023-01-30T02:11:28;4.23;;;2.43;;
11984;SDS011;6052;53.246;10.368;2023-01-30T02:13:58;4.87;;;2.40;;
11984;SDS011;6052;53.246;10.368;2023-01-30T02:16:26;1.10;;;1.00;;
11984;SDS011;6052;53.246;10.368;2023-01-30T02:18:54;2.10;;;1.47;;
11984;SDS011;6052;53.246;10.368;2023-01-30T02:21:45;2.83;;;2.43;;
11984;SDS011;6052;53.246;10.368;2023-01-30T02:24:30;2.17;;;2.03;;
11984;SDS011;6052;53.246;10.368;2023-01-30T02:27:07;1.83;;;1.17;;
11984;SDS011;6052;53.246;10.368;2023-01-30T02:29:47;2.10;;;1.53;;
11984;SDS011;6052;53.246;10.368;2023-01-30T02:32:30;2.00;;;0.93;;
11984;SDS011;6052;53.246;10.368;2023-01-30T02:35:02;0.97;;;0.90;;
11984;SDS011;6052;53.246;10.368;2023-01-30T02:37:36;2.17;;;1.00;;
11984;SDS011;6052;53.246;10.368;2023-01-30T02:40:26;1.43;;;0.67;;
11984;SDS011;6052;53.246;10.368;2023-01-30T02:43:05;2.40;;;1.23;;
11984;SDS011;6052;53.246;10.368;2023-01-30T02:45:39;1.50;;;1.40;;
11984;SDS011;6052;53.246;10.368;2023-01-30T02:48:10;2.33;;;2.00;;
11984;SDS011;6052;53.246;10.368;2023-01-30T02:50:41;1.87;;;1.77;;
11984;SDS011;6052;53.246;10.368;2023-01-30T02:53:11;2.07;;;1.10;;
11984;SDS011;6052;53.246;10.368;2023-01-30T02:55:39;2.23;;;1.43;;
11984;SDS011;6052;53.246;10.368;2023-01-30T02:58:07;2.50;;;1.73;;
11984;SDS011;6052;53.246;10.368;2023-01-30T03:00:42;1.90;;;1.17;;
11984;SDS011;6052;53.246;10.368;2023-01-30T03:03:24;1.47;;;1.37;;
11984;SDS011;6052;53.246;10.368;2023-01-30T03:06:05;0.80;;;0.80;;
11984;SDS011;6052;53.246;10.368;2023-01-30T03:08:47;3.33;;;1.00;;
11984;SDS011;6052;53.246;10.368;2023-01-30T03:11:20;1.47;;;1.17;;
11984;SDS011;6052;53.246;10.368;2023-01-30T03:13:51;1.60;;;1.50;;
11984;SDS011;6052;53.246;10.368;2023-01-30T03:16:23;1.87;;;0.60;;
11984;SDS011;6052;53.246;10.368;2023-01-30T03:18:54;1.13;;;1.13;;
11984;SDS011;6052;53.246;10.368;2023-01-30T03:21:22;1.27;;;1.23;;
11984;SDS011;6052;53.246;10.368;2023-01-30T03:23:49;0.90;;;0.90;;
11984;SDS011;6052;53.246;10.368;2023-01-30T03:26:18;1.27;;;1.17;;
11984;SDS011;6052;53.246;10.368;2023-01-30T03:28:48;0.67;;;0.60;;
11984;SDS011;6052;53.246;10.368;2023-01-30T03:31:17;3.37;;;0.93;;
11984;SDS011;6052;53.246;10.368;2023-01-30T03:33:45;0.97;;;0.80;;
11984;SDS011;6052;53.246;10.368;2023-01-30T03:36:14;0.77;;;0.77;;
11984;SDS011;6052;53.246;10.368;2023-01-30T03:38:41;1.60;;;0.37;;
11984;SDS011;6052;53.246;10.368;2023-01-30T03:41:09;1.43;;;1.30;;
11984;SDS011;6052;53.246;10.368;2023-01-30T03:43:36;2.37;;;0.77;;
11984;SDS011;6052;53.246;10.368;2023-01-30T03:46:04;0.87;;;0.87;;
11984;SDS011;6052;53.246;10.368;2023-01-30T03:48:31;1.87;;;0.83;;
11984;SDS011;6052;53.246;10.368;2023-01-30T03:50:59;1.50;;;0.70;;
11984;SDS011;6052;53.246;10.368;2023-01-30T03:53:29;3.83;;;0.50;;
11984;SDS011;6052;53.246;10.368;2023-01-30T03:55:59;0.80;;;0.80;;
11984;SDS011;6052;53.246;10.368;2023-01-30T03:58:28;1.63;;;0.83;;
11984;SDS011;6052;53.246;10.368;2023-01-30T04:00:55;1.67;;;1.57;;
11984;SDS011;6052;53.246;10.368;2023-01-30T04:03:23;4.40;;;1.30;;
11984;SDS011;6052;53.246;10.368;2023-01-30T04:05:51;1.70;;;1.60;;
11984;SDS011;6052;53.246;10.368;2023-01-30T04:08:18;1.87;;;1.60;;
11984;SDS011;6052;53.246;10.368;2023-01-30T04:10:47;0.80;;;0.80;;
11984;SDS011;6052;53.246;10.368;2023-01-30T04:13:15;0.33;;;0.33;;
11984;SDS011;6052;53.246;10.368;2023-01-30T04:15:45;1.90;;;1.17;;
11984;SDS011;6052;53.246;10.368;2023-01-30T04:18:12;0.50;;;0.50;;
11984;SDS011;6052;53.246;10.368;2023-01-30T04:20:40;0.20;;;0.20;;
11984;SDS011;6052;53.246;10.368;2023-01-30T04:23:07;0.70;;;0.50;;
11984;SDS011;6052;53.246;10.368;2023-01-30T04:25:35;0.90;;;0.77;;
11984;SDS011;6052;53.246;10.368;2023-01-30T04:28:04;1.63;;;0.97;;
11984;SDS011;6052;53.246;10.368;2023-01-30T04:30:32;0.63;;;0.63;;
11984;SDS011;6052;53.246;10.368;2023-01-30T04:33:00;5.20;;;0.73;;
11984;SDS011;6052;53.246;10.368;2023-01-30T04:35:28;1.97;;;0.57;;
11984;SDS011;6052;53.246;10.368;2023-01-30T04:37:55;0.10;;;0.10;;
11984;SDS011;6052;53.246;10.368;2023-01-30T04:40:23;0.43;;;0.43;;
11984;SDS011;6052;53.246;10.368;2023-01-30T04:42:50;1.27;;;0.97;;
11984;SDS011;6052;53.246;10.368;2023-01-30T04:45:19;1.17;;;0.87;;
11984;SDS011;6052;53.246;10.368;2023-01-30T04:47:46;0.60;;;0.60;;
11984;SDS011;6052;53.246;10.368;2023-01-30T04:50:14;0.40;;;0.40;;
11984;SDS011;6052;53.246;10.368;2023-01-30T04:52:42;0.60;;;0.60;;
11984;SDS011;6052;53.246;10.368;2023-01-30T04:55:09;0.10;;;0.10;;
11984;SDS011;6052;53.246;10.368;2023-01-30T04:57:37;0.60;;;0.60;;
11984;SDS011;6052;53.246;10.368;2023-01-30T05:00:06;0.30;;;0.30;;
11984;SDS011;6052;53.246;10.368;2023-01-30T05:02:36;0.80;;;0.80;;
11984;SDS011;6052;53.246;10.368;2023-01-30T05:05:04;0.40;;;0.40;;
11984;SDS011;6052;53.246;10.368;2023-01-30T05:07:33;0.20;;;0.20;;
11984;SDS011;6052;53.246;10.368;2023-01-30T05:10:00;0.20;;;0.20;;
11984;SDS011;6052;53.246;10.368;2023-01-30T05:12:28;0.30;;;0.30;;
11984;SDS011;6052;53.246;10.368;2023-01-30T05:14:56;0.20;;;0.20;;
11984;SDS011;6052;53.246;10.368;2023-01-30T05:17:24;0.47;;;0.47;;
11984;SDS011;6052;53.246;10.368;2023-01-30T05:19:53;1.53;;;0.57;;
11984;SDS011;6052;53.246;10.368;2023-01-30T05:22:20;0.03;;;0.03;;
11984;SDS011;6052;53.246;10.368;2023-01-30T05:24:47;0.40;;;0.40;;
11984;SDS011;6052;53.246;10.368;2023-01-30T05:27:15;1.17;;;0.40;;
11984;SDS011;6052;53.246;10.368;2023-01-30T05:29:42;0.30;;;0.30;;
11984;SDS011;6052;53.246;10.368;2023-01-30T05:32:10;0.37;;;0.37;;
11984;SDS011;6052;53.246;10.368;2023-01-30T05:34:38;0.40;;;0.40;;
11984;SDS011;6052;53.246;10.368;2023-01-30T05:37:07;0.00;;;0.00;;
11984;SDS011;6052;53.246;10.368;2023-01-30T05:39:35;0.10;;;0.10;;
11984;SDS011;6052;53.246;10.368;2023-01-30T05:42:06;0.10;;;0.10;;
11984;SDS011;6052;53.246;10.368;2023-01-30T05:44:33;0.00;;;0.00;;
11984;SDS011;6052;53.246;10.368;2023-01-30T05:47:01;0.43;;;0.43;;
11984;SDS011;6052;53.246;10.368;2023-01-30T05:49:28;0.30;;;0.30;;
11984;SDS011;6052;53.246;10.368;2023-01-30T05:51:56;0.03;;;0.03;;
11984;SDS011;6052;53.246;10.368;2023-01-30T05:54:25;0.07;;;0.07;;
11984;SDS011;6052;53.246;10.368;2023-01-30T05:56:52;0.10;;;0.10;;
11984;SDS011;6052;53.246;10.368;2023-01-30T05:59:20;0.00;;;0.00;;
11984;SDS011;6052;53.246;10.368;2023-01-30T06:01:47;0.27;;;0.27;;
11984;SDS011;6052;53.246;10.368;2023-01-30T06:04:15;0.10;;;0.10;;
11984;SDS011;6052;53.246;10.368;2023-01-30T06:06:42;0.00;;;0.00;;
11984;SDS011;6052;53.246;10.368;2023-01-30T06:09:10;0.00;;;0.00;;
11984;SDS011;6052;53.246;10.368;2023-01-30T06:11:38;0.10;;;0.10;;
11984;SDS011;6052;53.246;10.368;2023-01-30T06:14:06;0.10;;;0.10;;
11984;SDS011;6052;53.246;10.368;2023-01-30T06:24:33;0.10;;;0.10;;
11984;SDS011;6052;53.246;10.368;2023-01-30T06:27:04;1.70;;;0.57;;
11984;SDS011;6052;53.246;10.368;2023-01-30T06:29:32;0.00;;;0.00;;
11984;SDS011;6052;53.246;10.368;2023-01-30T06:31:59;0.93;;;0.20;;
11984;SDS011;6052;53.246;10.368;2023-01-30T06:34:28;0.20;;;0.20;;
11984;SDS011;6052;53.246;10.368;2023-01-30T06:36:55;0.00;;;0.00;;
11984;SDS011;6052;53.246;10.368;2023-01-30T06:39:23;0.63;;;0.63;;
11984;SDS011;6052;53.246;10.368;2023-01-30T06:41:51;0.10;;;0.10;;
11984;SDS011;6052;53.246;10.368;2023-01-30T06:44:19;0.10;;;0.10;;
11984;SDS011;6052;53.246;10.368;2023-01-30T06:46:47;0.00;;;0.00;;
11984;SDS011;6052;53.246;10.368;2023-01-30T06:49:14;0.40;;;0.30;;
11984;SDS011;6052;53.246;10.368;2023-01-30T06:51:42;0.00;;;0.00;;
11984;SDS011;6052;53.246;10.368;2023-01-30T06:54:09;0.10;;;0.10;;
11984;SDS011;6052;53.246;10.368;2023-01-30T06:56:36;0.00;;;0.00;;
11984;SDS011;6052;53.246;10.368;2023-01-30T06:59:04;0.10;;;0.10;;
11984;SDS011;6052;53.246;10.368;2023-01-30T07:01:33;0.10;;;0.10;;
11984;SDS011;6052;53.246;10.368;2023-01-30T07:04:00;0.10;;;0.10;;
11984;SDS011;6052;53.246;10.368;2023-01-30T07:06:28;0.00;;;0.00;;
11984;SDS011;6052;53.246;10.368;2023-01-30T07:08:55;0.00;;;0.00;;
11984;SDS011;6052;53.246;10.368;2023-01-30T07:11:23;0.10;;;0.10;;
11984;SDS011;6052;53.246;10.368;2023-01-30T07:13:54;0.20;;;0.20;;
11984;SDS011;6052;53.246;10.368;2023-01-30T07:16:21;0.00;;;0.00;;
11984;SDS011;6052;53.246;10.368;2023-01-30T07:18:55;0.00;;;0.00;;
11984;SDS011;6052;53.246;10.368;2023-01-30T07:21:23;0.00;;;0.00;;
11984;SDS011;6052;53.246;10.368;2023-01-30T07:23:52;0.10;;;0.10;;
11984;SDS011;6052;53.246;10.368;2023-01-30T07:26:19;0.20;;;0.20;;
11984;SDS011;6052;53.246;10.368;2023-01-30T07:28:47;0.17;;;0.17;;
11984;SDS011;6052;53.246;10.368;2023-01-30T07:31:14;0.10;;;0.10;;
11984;SDS011;6052;53.246;10.368;2023-01-30T07:33:42;0.00;;;0.00;;
11984;SDS011;6052;53.246;10.368;2023-01-30T07:36:11;0.20;;;0.20;;
11984;SDS011;6052;53.246;10.368;2023-01-30T07:38:38;0.10;;;0.10;;
11984;SDS011;6052;53.246;10.368;2023-01-30T07:41:06;0.00;;;0.00;;
11984;SDS011;6052;53.246;10.368;2023-01-30T07:43:33;0.40;;;0.40;;
11984;SDS011;6052;53.246;10.368;2023-01-30T07:46:01;0.13;;;0.13;;
11984;SDS011;6052;53.246;10.368;2023-01-30T07:48:29;0.60;;;0.60;;
11984;SDS011;6052;53.246;10.368;2023-01-30T07:50:56;0.10;;;0.10;;
11984;SDS011;6052;53.246;10.368;2023-01-30T07:53:25;0.00;;;0.00;;
11984;SDS011;6052;53.246;10.368;2023-01-30T07:55:52;0.00;;;0.00;;
11984;SDS011;6052;53.246;10.368;2023-01-30T07:58:20;0.20;;;0.20;;
11984;SDS011;6052;53.246;10.368;2023-01-30T08:00:47;0.00;;;0.00;;
11984;SDS011;6052;53.246;10.368;2023-01-30T08:03:16;0.83;;;0.50;;
11984;SDS011;6052;53.246;10.368;2023-01-30T08:05:44;0.10;;;0.10;;
11984;SDS011;6052;53.246;10.368;2023-01-30T08:08:11;0.00;;;0.00;;
11984;SDS011;6052;53.246;10.368;2023-01-30T08:10:40;0.10;;;0.10;;
11984;SDS011;6052;53.246;10.368;2023-01-30T08:13:08;0.10;;;0.10;;
11984;SDS011;6052;53.246;10.368;2023-01-30T08:15:35;0.00;;;0.00;;
11984;SDS011;6052;53.246;10.368;2023-01-30T08:18:03;0.53;;;0.40;;
11984;SDS011;6052;53.246;10.368;2023-01-30T08:20:32;0.20;;;0.20;;
11984;SDS011;6052;53.246;10.368;2023-01-30T08:22:59;0.37;;;0.37;;
11984;SDS011;6052;53.246;10.368;2023-01-30T08:25:28;2.00;;;0.33;;
11984;SDS011;6052;53.246;10.368;2023-01-30T08:27:58;0.20;;;0.20;;
11984;SDS011;6052;53.246;10.368;2023-01-30T08:30:26;0.67;;;0.67;;
11984;SDS011;6052;53.246;10.368;2023-01-30T08:32:55;0.10;;;0.10;;
11984;SDS011;6052;53.246;10.368;2023-01-30T08:35:23;0.23;;;0.23;;
11984;SDS011;6052;53.246;10.368;2023-01-30T08:37:50;0.93;;;0.60;;
11984;SDS011;6052;53.246;10.368;2023-01-30T08:40:18;0.20;;;0.13;;
11984;SDS011;6052;53.246;10.368;2023-01-30T08:42:46;0.40;;;0.40;;
11984;SDS011;6052;53.246;10.368;2023-01-30T08:45:14;0.27;;;0.27;;
11984;SDS011;6052;53.246;10.368;2023-01-30T08:47:42;0.50;;;0.50;;
11984;SDS011;6052;53.246;10.368;2023-01-30T08:50:09;1.40;;;0.63;;
11984;SDS011;6052;53.246;10.368;2023-01-30T08:52:37;0.00;;;0.00;;
11984;SDS011;6052;53.246;10.368;2023-01-30T08:55:05;2.20;;;0.83;;
11984;SDS011;6052;53.246;10.368;2023-01-30T08:57:32;0.23;;;0.17;;
11984;SDS011;6052;53.246;10.368;2023-01-30T09:00:00;0.30;;;0.20;;
11984;SDS011;6052;53.246;10.368;2023-01-30T09:02:29;0.37;;;0.23;;
11984;SDS011;6052;53.246;10.368;2023-01-30T09:04:57;0.10;;;0.10;;
11984;SDS011;6052;53.246;10.368;2023-01-30T09:07:24;0.13;;;0.13;;
11984;SDS011;6052;53.246;10.368;2023-01-30T09:09:53;0.10;;;0.10;;
11984;SDS011;6052;53.246;10.368;2023-01-30T09:12:21;0.20;;;0.20;;
11984;SDS011;6052;53.246;10.368;2023-01-30T09:14:48;0.40;;;0.27;;
11984;SDS011;6052;53.246;10.368;2023-01-30T09:17:18;0.10;;;0.10;;
11984;SDS011;6052;53.246;10.368;2023-01-30T09:19:47;0.10;;;0.10;;
11984;SDS011;6052;53.246;10.368;2023-01-30T09:22:14;0.10;;;0.10;;
11984;SDS011;6052;53.246;10.368;2023-01-30T09:24:42;0.00;;;0.00;;
11984;SDS011;6052;53.246;10.368;2023-01-30T09:27:09;0.10;;;0.10;;
11984;SDS011;6052;53.246;10.368;2023-01-30T09:29:37;0.00;;;0.00;;
11984;SDS011;6052;53.246;10.368;2023-01-30T09:32:04;0.60;;;0.53;;
11984;SDS011;6052;53.246;10.368;2023-01-30T09:34:31;0.73;;;0.60;;
11984;SDS011;6052;53.246;10.368;2023-01-30T09:37:00;1.30;;;0.87;;
11984;SDS011;6052;53.246;10.368;2023-01-30T09:39:30;0.10;;;0.10;;
11984;SDS011;6052;53.246;10.368;2023-01-30T09:42:08;0.20;;;0.20;;
11984;SDS011;6052;53.246;10.368;2023-01-30T09:44:54;0.10;;;0.10;;
11984;SDS011;6052;53.246;10.368;2023-01-30T09:47:32;4.33;;;1.17;;
11984;SDS011;6052;53.246;10.368;2023-01-30T09:50:07;0.10;;;0.10;;
11984;SDS011;6052;53.246;10.368;2023-01-30T09:52:50;0.20;;;0.20;;
11984;SDS011;6052;53.246;10.368;2023-01-30T09:55:20;2.27;;;0.93;;
11984;SDS011;6052;53.246;10.368;2023-01-30T09:57:49;0.00;;;0.00;;
11984;SDS011;6052;53.246;10.368;2023-01-30T10:00:20;0.10;;;0.10;;
11984;SDS011;6052;53.246;10.368;2023-01-30T10:02:50;0.00;;;0.00;;
11984;SDS011;6052;53.246;10.368;2023-01-30T10:05:20;0.00;;;0.00;;
11984;SDS011;6052;53.246;10.368;2023-01-30T10:07:56;0.30;;;0.30;;
11984;SDS011;6052;53.246;10.368;2023-01-30T10:10:35;0.00;;;0.00;;
11984;SDS011;6052;53.246;10.368;2023-01-30T10:13:14;0.47;;;0.47;;
11984;SDS011;6052;53.246;10.368;2023-01-30T10:15:52;0.10;;;0.10;;
11984;SDS011;6052;53.246;10.368;2023-01-30T10:21:30;0.60;;;0.60;;
11984;SDS011;6052;53.246;10.368;2023-01-30T10:24:11;0.03;;;0.03;;
11984;SDS011;6052;53.246;10.368;2023-01-30T10:26:58;0.10;;;0.10;;
11984;SDS011;6052;53.246;10.368;2023-01-30T10:29:27;0.13;;;0.13;;
11984;SDS011;6052;53.246;10.368;2023-01-30T10:31:57;0.33;;;0.30;;
11984;SDS011;6052;53.246;10.368;2023-01-30T10:34:28;0.00;;;0.00;;
11984;SDS011;6052;53.246;10.368;2023-01-30T10:36:58;0.17;;;0.10;;
11984;SDS011;6052;53.246;10.368;2023-01-30T10:39:33;0.67;;;0.17;;
11984;SDS011;6052;53.246;10.368;2023-01-30T10:42:20;0.40;;;0.40;;
11984;SDS011;6052;53.246;10.368;2023-01-30T10:44:51;0.00;;;0.00;;
11984;SDS011;6052;53.246;10.368;2023-01-30T10:47:28;0.33;;;0.33;;
11984;SDS011;6052;53.246;10.368;2023-01-30T10:50:13;0.00;;;0.00;;
11984;SDS011;6052;53.246;10.368;2023-01-30T10:52:46;0.30;;;0.30;;
11984;SDS011;6052;53.246;10.368;2023-01-30T10:55:22;1.17;;;0.23;;
11984;SDS011;6052;53.246;10.368;2023-01-30T10:58:04;0.07;;;0.07;;
11984;SDS011;6052;53.246;10.368;2023-01-30T11:00:37;0.00;;;0.00;;
11984;SDS011;6052;53.246;10.368;2023-01-30T11:03:14;0.23;;;0.20;;
11984;SDS011;6052;53.246;10.368;2023-01-30T11:05:47;0.10;;;0.10;;
11984;SDS011;6052;53.246;10.368;2023-01-30T11:08:20;0.73;;;0.73;;
11984;SDS011;6052;53.246;10.368;2023-01-30T11:10:51;0.10;;;0.10;;
11984;SDS011;6052;53.246;10.368;2023-01-30T11:13:19;0.00;;;0.00;;
11984;SDS011;6052;53.246;10.368;2023-01-30T11:15:50;0.23;;;0.23;;
11984;SDS011;6052;53.246;10.368;2023-01-30T11:18:19;0.00;;;0.00;;
11984;SDS011;6052;53.246;10.368;2023-01-30T11:21:09;0.10;;;0.10;;
11984;SDS011;6052;53.246;10.368;2023-01-30T11:23:39;0.87;;;0.37;;
11984;SDS011;6052;53.246;10.368;2023-01-30T11:26:15;0.10;;;0.10;;
11984;SDS011;6052;53.246;10.368;2023-01-30T11:28:45;0.47;;;0.47;;
11984;SDS011;6052;53.246;10.368;2023-01-30T11:31:15;0.00;;;0.00;;
11984;SDS011;6052;53.246;10.368;2023-01-30T11:34:00;1.50;;;1.07;;
11984;SDS011;6052;53.246;10.368;2023-01-30T11:36:29;0.60;;;0.60;;
11984;SDS011;6052;53.246;10.368;2023-01-30T11:38:58;0.43;;;0.43;;
11984;SDS011;6052;53.246;10.368;2023-01-30T11:41:29;0.20;;;0.20;;
11984;SDS011;6052;53.246;10.368;2023-01-30T11:44:00;8.43;;;0.30;;
11984;SDS011;6052;53.246;10.368;2023-01-30T11:46:28;0.57;;;0.30;;
11984;SDS011;6052;53.246;10.368;2023-01-30T11:48:58;0.30;;;0.30;;
11984;SDS011;6052;53.246;10.368;2023-01-30T11:51:47;1.13;;;0.50;;
11984;SDS011;6052;53.246;10.368;2023-01-30T11:54:19;1.50;;;1.30;;
11984;SDS011;6052;53.246;10.368;2023-01-30T11:56:57;0.10;;;0.10;;
11984;SDS011;6052;53.246;10.368;2023-01-30T11:59:26;0.00;;;0.00;;
11984;SDS011;6052;53.246;10.368;2023-01-30T12:02:03;0.23;;;0.23;;
11984;SDS011;6052;53.246;10.368;2023-01-30T12:04:32;0.00;;;0.00;;
11984;SDS011;6052;53.246;10.368;2023-01-30T12:07:04;0.00;;;0.00;;
11984;SDS011;6052;53.246;10.368;2023-01-30T12:09:33;0.40;;;0.30;;
11984;SDS011;6052;53.246;10.368;2023-01-30T12:15:00;0.00;;;0.00;;
11984;SDS011;6052;53.246;10.368;2023-01-30T12:17:33;1.20;;;1.10;;
11984;SDS011;6052;53.246;10.368;2023-01-30T12:20:02;0.10;;;0.10;;
11984;SDS011;6052;53.246;10.368;2023-01-30T12:22:33;0.00;;;0.00;;
11984;SDS011;6052;53.246;10.368;2023-01-30T12:25:08;0.10;;;0.10;;
11984;SDS011;6052;53.246;10.368;2023-01-30T12:27:45;0.10;;;0.10;;
11984;SDS011;6052;53.246;10.368;2023-01-30T12:30:18;0.70;;;0.70;;
11984;SDS011;6052;53.246;10.368;2023-01-30T12:32:49;0.00;;;0.00;;
11984;SDS011;6052;53.246;10.368;2023-01-30T12:35:16;0.10;;;0.10;;
11984;SDS011;6052;53.246;10.368;2023-01-30T12:37:49;0.87;;;0.43;;
11984;SDS011;6052;53.246;10.368;2023-01-30T12:40:26;0.10;;;0.10;;
11984;SDS011;6052;53.246;10.368;2023-01-30T12:45:59;0.10;;;0.10;;
11984;SDS011;6052;53.246;10.368;2023-01-30T12:48:42;0.10;;;0.10;;
11984;SDS011;6052;53.246;10.368;2023-01-30T12:51:43;0.43;;;0.43;;
11984;SDS011;6052;53.246;10.368;2023-01-30T12:54:23;0.20;;;0.20;;
11984;SDS011;6052;53.246;10.368;2023-01-30T12:57:02;0.10;;;0.10;;
11984;SDS011;6052;53.246;10.368;2023-01-30T12:59:37;0.30;;;0.30;;
11984;SDS011;6052;53.246;10.368;2023-01-30T13:02:18;0.00;;;0.00;;
11984;SDS011;6052;53.246;10.368;2023-01-30T13:04:55;0.10;;;0.10;;
11984;SDS011;6052;53.246;10.368;2023-01-30T13:07:35;0.50;;;0.20;;
11984;SDS011;6052;53.246;10.368;2023-01-30T13:10:09;0.00;;;0.00;;
11984;SDS011;6052;53.246;10.368;2023-01-30T13:12:42;0.10;;;0.10;;
11984;SDS011;6052;53.246;10.368;2023-01-30T13:15:17;0.00;;;0.00;;
11984;SDS011;6052;53.246;10.368;2023-01-30T13:17:53;0.10;;;0.10;;
11984;SDS011;6052;53.246;10.368;2023-01-30T13:20:34;0.00;;;0.00;;
11984;SDS011;6052;53.246;10.368;2023-01-30T13:23:09;0.20;;;0.20;;
11984;SDS011;6052;53.246;10.368;2023-01-30T13:25:41;0.03;;;0.03;;
11984;SDS011;6052;53.246;10.368;2023-01-30T13:28:13;0.67;;;0.37;;
11984;SDS011;6052;53.246;10.368;2023-01-30T13:30:44;0.10;;;0.10;;
11984;SDS011;6052;53.246;10.368;2023-01-30T13:33:12;0.20;;;0.20;;
11984;SDS011;6052;53.246;10.368;2023-01-30T13:35:42;0.10;;;0.10;;
11984;SDS011;6052;53.246;10.368;2023-01-30T13:38:13;0.20;;;0.20;;
11984;SDS011;6052;53.246;10.368;2023-01-30T13:40:44;0.17;;;0.17;;
11984;SDS011;6052;53.246;10.368;2023-01-30T13:43:14;0.10;;;0.10;;
11984;SDS011;6052;53.246;10.368;2023-01-30T13:45:47;0.20;;;0.20;;
11984;SDS011;6052;53.246;10.368;2023-01-30T13:48:20;0.23;;;0.23;;
11984;SDS011;6052;53.246;10.368;2023-01-30T13:50:57;0.40;;;0.40;;
11984;SDS011;6052;53.246;10.368;2023-01-30T13:53:32;0.10;;;0.10;;
11984;SDS011;6052;53.246;10.368;2023-01-30T13:56:06;0.93;;;0.27;;
11984;SDS011;6052;53.246;10.368;2023-01-30T13:59:00;0.10;;;0.10;;
11984;SDS011;6052;53.246;10.368;2023-01-30T14:04:43;0.50;;;0.50;;
11984;SDS011;6052;53.246;10.368;2023-01-30T14:07:14;0.10;;;0.10;;
11984;SDS011;6052;53.246;10.368;2023-01-30T14:09:45;0.67;;;0.67;;
11984;SDS011;6052;53.246;10.368;2023-01-30T14:12:16;0.00;;;0.00;;
11984;SDS011;6052;53.246;10.368;2023-01-30T14:14:55;0.20;;;0.20;;
11984;SDS011;6052;53.246;10.368;2023-01-30T14:17:24;0.10;;;0.10;;
11984;SDS011;6052;53.246;10.368;2023-01-30T14:19:56;0.00;;;0.00;;
11984;SDS011;6052;53.246;10.368;2023-01-30T14:22:25;0.10;;;0.10;;
11984;SDS011;6052;53.246;10.368;2023-01-30T14:37:27;0.00;;;0.00;;
11984;SDS011;6052;53.246;10.368;2023-01-30T14:39:56;0.20;;;0.20;;
11984;SDS011;6052;53.246;10.368;2023-01-30T14:42:25;0.10;;;0.10;;
11984;SDS011;6052;53.246;10.368;2023-01-30T14:44:53;0.97;;;0.43;;
11984;SDS011;6052;53.246;10.368;2023-01-30T14:47:22;0.00;;;0.00;;
11984;SDS011;6052;53.246;10.368;2023-01-30T14:50:15;0.00;;;0.00;;
11984;SDS011;6052;53.246;10.368;2023-01-30T14:52:46;0.30;;;0.30;;
11984;SDS011;6052;53.246;10.368;2023-01-30T14:55:16;0.20;;;0.20;;
11984;SDS011;6052;53.246;10.368;2023-01-30T14:57:47;1.23;;;0.93;;
11984;SDS011;6052;53.246;10.368;2023-01-30T15:00:20;0.47;;;0.20;;
11984;SDS011;6052;53.246;10.368;2023-01-30T15:02:51;0.10;;;0.10;;
11984;SDS011;6052;53.246;10.368;2023-01-30T15:05:24;0.20;;;0.20;;
11984;SDS011;6052;53.246;10.368;2023-01-30T15:07:56;0.10;;;0.10;;
11984;SDS011;6052;53.246;10.368;2023-01-30T15:10:32;0.77;;;0.50;;
11984;SDS011;6052;53.246;10.368;2023-01-30T15:13:12;0.30;;;0.30;;
11984;SDS011;6052;53.246;10.368;2023-01-30T15:15:59;0.10;;;0.10;;
11984;SDS011;6052;53.246;10.368;2023-01-30T15:18:36;0.13;;;0.13;;
11984;SDS011;6052;53.246;10.368;2023-01-30T15:21:17;0.10;;;0.10;;
11984;SDS011;6052;53.246;10.368;2023-01-30T15:24:00;0.30;;;0.30;;
11984;SDS011;6052;53.246;10.368;2023-01-30T15:26:45;2.47;;;1.50;;
11984;SDS011;6052;53.246;10.368;2023-01-30T15:29:33;0.00;;;0.00;;
11984;SDS011;6052;53.246;10.368;2023-01-30T15:32:15;0.13;;;0.13;;
11984;SDS011;6052;53.246;10.368;2023-01-30T15:34:50;0.30;;;0.30;;
11984;SDS011;6052;53.246;10.368;2023-01-30T15:37:28;0.10;;;0.10;;
11984;SDS011;6052;53.246;10.368;2023-01-30T15:40:10;0.23;;;0.23;;
11984;SDS011;6052;53.246;10.368;2023-01-30T15:42:49;0.10;;;0.10;;
11984;SDS011;6052;53.246;10.368;2023-01-30T15:45:19;0.00;;;0.00;;
11984;SDS011;6052;53.246;10.368;2023-01-30T15:48:08;1.33;;;1.00;;